createdAt,value
2017-06-19T00:00:34.428Z,1013.2
2017-06-19T00:10:43.331Z,1013.2
2017-06-19T00:20:52.274Z,1013.1
2017-06-19T00:31:01.315Z,1013.1
2017-06-19T00:41:10.383Z,1013
2017-06-19T00:51:19.437Z,1013
2017-06-19T01:01:28.553Z,1012.9
2017-06-19T01:11:37.780Z,1012.8
2017-06-19T01:21:46.981Z,1012.7
2017-06-19T01:31:56.211Z,1012.7
2017-06-19T01:42:05.504Z,1012.7
2017-06-19T01:52:14.829Z,1012.6
2017-06-19T02:02:24.139Z,1012.6
2017-06-19T02:12:33.443Z,1012.5
2017-06-19T02:22:42.761Z,1012.6
2017-06-19T02:32:52.083Z,1012.7
2017-06-19T02:43:01.439Z,1012.6
2017-06-19T02:53:10.828Z,1012.5
2017-06-19T03:03:20.186Z,1012.3
2017-06-19T03:13:29.502Z,1012.4
2017-06-19T03:23:38.762Z,1012.3
2017-06-19T03:33:48.036Z,1012.3
2017-06-19T03:43:57.259Z,1012.2
2017-06-19T03:54:06.395Z,1012.3
2017-06-19T04:04:15.440Z,1012.4
2017-06-19T04:14:24.404Z,1012.4
2017-06-19T04:24:33.275Z,1012.3
2017-06-19T04:34:42.072Z,1012.4
2017-06-19T04:44:50.759Z,1012.4
2017-06-19T04:54:59.750Z,1012.4
2017-06-19T05:05:07.746Z,1012.4
2017-06-19T05:15:16.080Z,1012.4
2017-06-19T05:25:24.313Z,1012.3
2017-06-19T05:35:32.427Z,1012.4
2017-06-19T05:45:40.391Z,1012.5
2017-06-19T05:55:48.240Z,1012.4
2017-06-19T06:05:55.987Z,1012.4
2017-06-19T06:16:03.609Z,1012.3
2017-06-19T06:26:11.168Z,1012.4
2017-06-19T06:36:18.643Z,1012.4
2017-06-19T06:46:26.041Z,1012.3
2017-06-19T06:56:33.361Z,1012.3
2017-06-19T07:06:40.582Z,1012.3
2017-06-19T07:16:47.694Z,1012.2
2017-06-19T07:26:54.697Z,1012.2
2017-06-19T07:37:01.588Z,1012.3
2017-06-19T07:47:08.424Z,1012.3
2017-06-19T07:57:15.303Z,1012.2
2017-06-19T08:07:22.120Z,1012
2017-06-19T08:17:28.912Z,1012
2017-06-19T08:27:35.665Z,1011.9
2017-06-19T08:37:42.361Z,1011.9
2017-06-19T08:47:49.117Z,1011.8
2017-06-19T08:57:55.759Z,1011.7
2017-06-19T09:08:02.379Z,1011.6
2017-06-19T09:18:08.909Z,1011.4
2017-06-19T09:28:15.421Z,1011.4
2017-06-19T09:38:21.818Z,1011.4
2017-06-19T09:48:28.252Z,1011.3
2017-06-19T09:58:34.689Z,1011.3
2017-06-19T10:08:41.034Z,1011.3
2017-06-19T10:18:47.476Z,1011.2
2017-06-19T10:28:53.911Z,1011
2017-06-19T10:39:00.322Z,1010.9
2017-06-19T10:49:06.779Z,1010.8
2017-06-19T10:59:13.286Z,1010.7
2017-06-19T11:09:19.610Z,1010.5
2017-06-19T11:19:25.950Z,1010.4
2017-06-19T11:29:32.289Z,1010.4
2017-06-19T11:39:38.612Z,1010.3
2017-06-19T11:49:44.925Z,1010.4
2017-06-19T11:59:51.218Z,1010.2
2017-06-19T12:09:57.535Z,1010.1
2017-06-19T12:20:03.746Z,1009.9
2017-06-19T12:30:09.951Z,1009.9
2017-06-19T12:40:16.162Z,1009.8
2017-06-19T12:50:22.318Z,1009.6
2017-06-19T13:00:28.446Z,1009.5
2017-06-19T13:10:34.640Z,1009.4
2017-06-19T13:20:40.776Z,1009.2
2017-06-19T13:30:46.795Z,1009.1
2017-06-19T13:40:52.865Z,1009
2017-06-19T13:50:58.884Z,1009
2017-06-19T14:01:04.925Z,1009
2017-06-19T14:11:10.990Z,1009
2017-06-19T14:21:17.051Z,1008.8
2017-06-19T14:31:23.059Z,1008.7
2017-06-19T14:41:28.969Z,1008.6
2017-06-19T14:51:34.912Z,1008.4
2017-06-19T15:01:40.851Z,1008.2
2017-06-19T15:11:47.046Z,1008.3
2017-06-19T15:21:53.234Z,1008.2
2017-06-19T15:31:59.252Z,1008.2
2017-06-19T15:42:05.205Z,1008
2017-06-19T15:52:11.350Z,1007.9
2017-06-19T16:02:17.076Z,1007.9
2017-06-19T16:12:22.971Z,1007.8
2017-06-19T16:22:28.788Z,1007.8
2017-06-19T16:32:34.720Z,1007.6
2017-06-19T16:42:40.627Z,1007.5
2017-06-19T16:52:46.578Z,1007.5
2017-06-19T17:02:52.544Z,1007.5
2017-06-19T17:12:58.662Z,1007.4
2017-06-19T17:23:04.893Z,1007.5
2017-06-19T17:33:11.360Z,1007.4
2017-06-19T17:43:18.153Z,1007.5
2017-06-19T17:53:24.963Z,1007.4
2017-06-19T18:03:31.845Z,1007.5
2017-06-19T18:13:38.815Z,1007.4
2017-06-19T18:23:45.932Z,1007.4
2017-06-19T18:33:53.084Z,1007.4
2017-06-19T18:44:00.283Z,1007.2
2017-06-19T18:54:07.587Z,1007.2
2017-06-19T19:04:14.978Z,1007.2
2017-06-19T19:14:22.391Z,1007.1
2017-06-19T19:24:29.901Z,1007.1
2017-06-19T19:34:37.528Z,1007.1
2017-06-19T19:44:45.202Z,1007.2
2017-06-19T19:54:53.105Z,1007.2
2017-06-19T20:05:01.059Z,1007.2
2017-06-19T20:15:09.156Z,1007.3
2017-06-19T20:25:17.379Z,1007.2
2017-06-19T20:35:25.681Z,1007.3
2017-06-19T20:45:34.015Z,1007.2
2017-06-19T20:55:42.384Z,1007.3
2017-06-19T21:05:50.706Z,1007.3
2017-06-19T21:15:59.117Z,1007.3
2017-06-19T21:26:07.594Z,1007.3
2017-06-19T21:36:16.078Z,1007.2
2017-06-19T21:46:24.532Z,1007.1
2017-06-19T21:56:33.100Z,1007.1
2017-06-19T22:06:41.635Z,1007.1
2017-06-19T22:16:50.141Z,1007
2017-06-19T22:26:58.671Z,1007.1
2017-06-19T22:37:07.239Z,1007.1
2017-06-19T22:47:15.940Z,1007.1
2017-06-19T22:57:24.313Z,1007
2017-06-19T23:07:32.801Z,1006.9
2017-06-19T23:17:41.316Z,1006.7
2017-06-19T23:27:49.951Z,1006.9
2017-06-19T23:37:58.626Z,1006.8
2017-06-19T23:48:07.253Z,1006.7
2017-06-19T23:58:15.912Z,1006.7
